createdAt,value
2023-04-13T00:07:41.144Z,-360.00
2023-04-13T00:13:21.230Z,-360.00
2023-04-13T00:19:03.796Z,-360.00
2023-04-13T00:25:01.535Z,-324.00
2023-04-13T00:30:44.293Z,-360.00
2023-04-13T00:36:27.492Z,-324.00
2023-04-13T00:42:27.291Z,-324.00
2023-04-13T00:48:18.480Z,-324.00
2023-04-13T00:59:57.034Z,-324.00
2023-04-13T01:05:39.609Z,-360.00
2023-04-13T01:12:15.107Z,-324.00
2023-04-13T01:17:57.799Z,-324.00
2023-04-13T01:23:40.222Z,-324.00
2023-04-13T01:29:37.572Z,-324.00
2023-04-13T01:39:58.310Z,-360.00
2023-04-13T01:45:06.430Z,-360.00
2023-04-13T01:50:13.771Z,-396.00
2023-04-13T01:55:34.096Z,-360.00
2023-04-13T02:00:51.514Z,-396.00
2023-04-13T02:06:31.048Z,-324.00
2023-04-13T02:12:28.653Z,-324.00
2023-04-13T02:17:43.303Z,-360.00
2023-04-13T02:22:56.282Z,-396.00
2023-04-13T02:28:03.815Z,-360.00
2023-04-13T02:33:12.639Z,-360.00
2023-04-13T02:38:35.136Z,-324.00
2023-04-13T02:43:42.734Z,-360.00
2023-04-13T02:48:50.070Z,-360.00
2023-04-13T02:53:58.013Z,-360.00
2023-04-13T02:59:40.843Z,-324.00
2023-04-13T03:05:23.787Z,-324.00
2023-04-13T03:11:56.966Z,-360.00
2023-04-13T03:15:44.278Z,-360.00
2023-04-13T03:20:51.640Z,-360.00
2023-04-13T03:25:58.904Z,-360.00
2023-04-13T03:31:06.352Z,-396.00
2023-04-13T03:36:13.448Z,-360.00
2023-04-13T03:41:20.633Z,-360.00
2023-04-13T03:46:27.937Z,-396.00
2023-04-13T03:51:35.269Z,-360.00
2023-04-13T03:56:42.484Z,-396.00
2023-04-13T04:01:49.915Z,-360.00
2023-04-13T04:06:57.064Z,-360.00
2023-04-13T04:12:04.239Z,-324.00
2023-04-13T04:17:11.448Z,-360.00
2023-04-13T04:22:18.664Z,-360.00
2023-04-13T04:27:25.912Z,-324.00
2023-04-13T04:32:33.167Z,-360.00
2023-04-13T04:37:40.395Z,-396.00
2023-04-13T04:42:47.667Z,-324.00
2023-04-13T04:47:54.974Z,-396.00
2023-04-13T04:53:02.152Z,-324.00
2023-04-13T04:58:09.322Z,-360.00
2023-04-13T05:03:16.636Z,-360.00
2023-04-13T05:08:23.782Z,-360.00
2023-04-13T05:13:31.086Z,-360.00
2023-04-13T05:18:38.277Z,-216.00
2023-04-13T05:23:45.432Z,-360.00
2023-04-13T05:28:52.752Z,-324.00
2023-04-13T05:34:00.139Z,-360.00
2023-04-13T05:39:07.197Z,-360.00
2023-04-13T05:44:14.374Z,-360.00
2023-04-13T05:49:21.628Z,-324.00
2023-04-13T05:54:28.758Z,-324.00
2023-04-13T05:59:35.942Z,-288.00
2023-04-13T06:04:43.210Z,-288.00
2023-04-13T06:09:50.293Z,-360.00
2023-04-13T06:14:57.466Z,-288.00
2023-04-13T06:20:04.715Z,-360.00
2023-04-13T06:25:11.865Z,-324.00
2023-04-13T06:30:19.095Z,-288.00
2023-04-13T06:35:26.267Z,-288.00
2023-04-13T06:40:33.422Z,-324.00
2023-04-13T06:45:41.384Z,-324.00
2023-04-13T06:50:48.604Z,-288.00
2023-04-13T06:55:55.756Z,-288.00
2023-04-13T07:01:03.197Z,-288.00
2023-04-13T07:06:10.282Z,-324.00
2023-04-13T07:11:17.515Z,-324.00
2023-04-13T07:16:24.762Z,-288.00
2023-04-13T07:21:31.958Z,-288.00
2023-04-13T07:26:39.083Z,-288.00
2023-04-13T07:31:46.324Z,-288.00
2023-04-13T07:36:53.501Z,-324.00
2023-04-13T07:42:00.745Z,-324.00
2023-04-13T07:47:08.084Z,-324.00
2023-04-13T07:52:15.240Z,-288.00
2023-04-13T07:57:22.424Z,-252.00
2023-04-13T08:02:29.899Z,-288.00
2023-04-13T08:07:37.020Z,-252.00
2023-04-13T08:12:44.299Z,-288.00
2023-04-13T08:17:51.595Z,-288.00
2023-04-13T08:22:58.857Z,-252.00
2023-04-13T08:28:06.169Z,-252.00
2023-04-13T08:33:13.443Z,-288.00
2023-04-13T08:38:20.681Z,-252.00
2023-04-13T08:43:27.879Z,-252.00
2023-04-13T08:48:50.032Z,-216.00
2023-04-13T08:53:42.460Z,-216.00
2023-04-13T08:58:49.514Z,-252.00
2023-04-13T09:03:56.833Z,-252.00
2023-04-13T09:09:03.893Z,26784.00
2023-04-13T09:14:11.102Z,26856.00
2023-04-13T09:19:18.272Z,25740.00
2023-04-13T09:24:25.556Z,24876.00
2023-04-13T09:29:32.729Z,24444.00
2023-04-13T09:34:39.889Z,23580.00
2023-04-13T09:39:47.121Z,23832.00
2023-04-13T09:44:54.295Z,23940.00
2023-04-13T09:50:01.543Z,26172.00
2023-04-13T09:55:08.781Z,26208.00
2023-04-13T10:00:17.719Z,25704.00
2023-04-13T10:05:23.297Z,27180.00
2023-04-13T10:10:30.560Z,24300.00
2023-04-13T10:15:37.890Z,22248.00
2023-04-13T10:20:45.082Z,21492.00
2023-04-13T10:25:52.414Z,23004.00
2023-04-13T10:30:59.660Z,26316.00
2023-04-13T10:36:06.829Z,28116.00
2023-04-13T10:41:14.033Z,28224.00
2023-04-13T10:46:21.220Z,24588.00
2023-04-13T10:51:28.373Z,18792.00
2023-04-13T10:56:35.624Z,12132.00
2023-04-13T11:01:42.812Z,11340.00
2023-04-13T11:06:49.967Z,19476.00
2023-04-13T11:12:32.444Z,24012.00
2023-04-13T11:17:39.832Z,24840.00
2023-04-13T11:22:50.202Z,24588.00
2023-04-13T11:27:58.485Z,25956.00
2023-04-13T11:33:05.978Z,26820.00
2023-04-13T11:38:13.333Z,26352.00
2023-04-13T11:43:20.747Z,25812.00
2023-04-13T11:48:28.041Z,26640.00
2023-04-13T11:53:35.348Z,26028.00
2023-04-13T11:58:42.581Z,25056.00
2023-04-13T12:09:02.754Z,24480.00
2023-04-13T12:14:10.245Z,24804.00
2023-04-13T12:19:13.524Z,24696.00
2023-04-13T12:24:18.974Z,24516.00
2023-04-13T12:29:25.828Z,24984.00
2023-04-13T12:34:33.026Z,24264.00
2023-04-13T12:39:40.246Z,24048.00
2023-04-13T12:44:47.587Z,22968.00
2023-04-13T12:49:54.737Z,21204.00
2023-04-13T12:55:02.252Z,20160.00
2023-04-13T13:00:12.922Z,19872.00
2023-04-13T13:05:19.239Z,15624.00
2023-04-13T13:10:30.000Z,14220.00
2023-04-13T13:15:34.077Z,14292.00
2023-04-13T13:20:41.688Z,16416.00
2023-04-13T13:26:07.571Z,23256.00
2023-04-13T13:30:56.223Z,24768.00
2023-04-13T13:36:05.577Z,24840.00
2023-04-13T13:41:24.345Z,23472.00
2023-04-13T13:46:26.038Z,22140.00
2023-04-13T13:51:33.705Z,23148.00
2023-04-13T13:56:41.393Z,24120.00
2023-04-13T14:01:49.056Z,23760.00
2023-04-13T14:06:56.329Z,23688.00
2023-04-13T14:12:03.604Z,23256.00
2023-04-13T14:17:14.233Z,23400.00
2023-04-13T14:22:26.521Z,23292.00
2023-04-13T14:27:48.971Z,24048.00
2023-04-13T14:33:01.476Z,24300.00
2023-04-13T14:38:30.024Z,24408.00
2023-04-13T14:43:21.627Z,24300.00
2023-04-13T14:48:29.251Z,23688.00
2023-04-13T14:53:36.417Z,23688.00
2023-04-13T14:58:43.646Z,23364.00
2023-04-13T15:03:51.155Z,23220.00
2023-04-13T15:08:58.789Z,23472.00
2023-04-13T15:14:05.566Z,23904.00
2023-04-13T15:19:17.709Z,23940.00
2023-04-13T15:24:24.970Z,23652.00
2023-04-13T15:29:32.365Z,23724.00
2023-04-13T15:34:39.601Z,23184.00
2023-04-13T15:39:49.581Z,22536.00
2023-04-13T15:44:55.420Z,21780.00
2023-04-13T15:50:02.577Z,21708.00
2023-04-13T15:55:10.024Z,21924.00
2023-04-13T16:00:17.517Z,22032.00
2023-04-13T16:05:24.905Z,20916.00
2023-04-13T16:10:32.113Z,20376.00
2023-04-13T16:15:42.363Z,20304.00
2023-04-13T16:20:49.156Z,20340.00
2023-04-13T16:25:56.507Z,18972.00
2023-04-13T16:31:03.836Z,12492.00
2023-04-13T16:36:11.110Z,12348.00
2023-04-13T16:41:19.369Z,11736.00
2023-04-13T16:46:26.751Z,12312.00
2023-04-13T16:51:33.999Z,15336.00
2023-04-13T16:56:41.210Z,9972.00
2023-04-13T17:01:49.252Z,9036.00
2023-04-13T17:06:56.565Z,7596.00
2023-04-13T17:12:04.013Z,6912.00
2023-04-13T17:17:11.472Z,6048.00
2023-04-13T17:22:18.730Z,5868.00
2023-04-13T17:27:26.567Z,11916.00
2023-04-13T17:32:34.300Z,11052.00
2023-04-13T17:37:41.592Z,10548.00
2023-04-13T17:42:48.747Z,10332.00
2023-04-13T17:47:57.138Z,10116.00
2023-04-13T17:53:04.808Z,9828.00
2023-04-13T17:58:12.031Z,9432.00
2023-04-13T18:03:20.198Z,9468.00
2023-04-13T18:08:27.507Z,9288.00
2023-04-13T18:13:35.194Z,9360.00
2023-04-13T18:18:42.902Z,9360.00
2023-04-13T18:23:50.547Z,9288.00
2023-04-13T18:28:58.145Z,9396.00
2023-04-13T18:34:06.174Z,9288.00
2023-04-13T18:39:13.600Z,9396.00
2023-04-13T18:44:20.904Z,9360.00
2023-04-13T18:49:28.293Z,9252.00
2023-04-13T18:54:35.822Z,9396.00
2023-04-13T18:59:43.173Z,9288.00
2023-04-13T19:04:50.591Z,9252.00
2023-04-13T19:09:58.102Z,10008.00
2023-04-13T19:15:05.751Z,10188.00
2023-04-13T19:20:13.563Z,10116.00
2023-04-13T19:25:21.223Z,10152.00
2023-04-13T19:30:28.929Z,10152.00
2023-04-13T19:35:36.593Z,9900.00
2023-04-13T19:40:45.533Z,9900.00
2023-04-13T19:45:53.200Z,9972.00
2023-04-13T19:51:00.852Z,9936.00
2023-04-13T19:56:08.450Z,9936.00
2023-04-13T20:01:16.073Z,10008.00
2023-04-13T20:06:24.046Z,10116.00
2023-04-13T20:11:31.413Z,10188.00
2023-04-13T20:16:38.704Z,10188.00
2023-04-13T20:21:46.271Z,10188.00
2023-04-13T20:26:53.753Z,9972.00
2023-04-13T20:32:01.227Z,10404.00
2023-04-13T20:37:08.651Z,10296.00
2023-04-13T20:42:17.487Z,10332.00
2023-04-13T20:47:26.391Z,10080.00
2023-04-13T20:52:33.614Z,10152.00
2023-04-13T20:57:40.812Z,10044.00
2023-04-13T21:02:48.116Z,9936.00
2023-04-13T21:07:57.448Z,10080.00
2023-04-13T21:13:06.576Z,10152.00
2023-04-13T21:18:13.846Z,10008.00
2023-04-13T21:23:21.332Z,10188.00
2023-04-13T21:28:28.645Z,10188.00
2023-04-13T21:33:35.872Z,10188.00
2023-04-13T21:38:43.187Z,10188.00
2023-04-13T21:44:02.232Z,-360.00
2023-04-13T21:49:47.500Z,-324.00
2023-04-13T21:55:31.601Z,-324.00
2023-04-13T22:01:19.343Z,-324.00
2023-04-13T22:06:48.537Z,-360.00
2023-04-13T22:12:31.157Z,-360.00
2023-04-13T22:18:12.430Z,-360.00
2023-04-13T22:23:11.896Z,-360.00
2023-04-13T22:28:28.970Z,-360.00
2023-04-13T22:33:41.681Z,-360.00
2023-04-13T22:39:30.349Z,-324.00
2023-04-13T22:49:33.491Z,-360.00
2023-04-13T22:50:49.158Z,-360.00
2023-04-13T22:55:30.539Z,-360.00
2023-04-13T23:01:59.266Z,-324.00
2023-04-13T23:06:38.314Z,-360.00
2023-04-13T23:11:53.734Z,-360.00
2023-04-13T23:17:16.562Z,-360.00
2023-04-13T23:22:23.982Z,-360.00
2023-04-13T23:27:33.714Z,-360.00
2023-04-13T23:32:51.528Z,-360.00
2023-04-13T23:37:54.269Z,-360.00
2023-04-13T23:43:01.587Z,-324.00
2023-04-13T23:48:08.789Z,-360.00
2023-04-13T23:53:16.099Z,-360.00
2023-04-13T23:58:23.363Z,-360.00
